METAR AND TAF INFORMATION
METAR FOR EHRD
ADDS - METARS form results

(0631 UTC 09 April 2020)
Data provider http://aviationweather.gov/metar/data/
 
METAR text: EHRD 090625Z AUTO VRB02KT 9000 NSC 10/08 Q1025 NOSIG
Conditions at: EHRD (ROTTERDAM AIRPOR, NL) observed 0625 UTC 09 April 2020
Temperature: 10.0°C (50°F)
Dewpoint: 8.0°C (46°F) [RH = 87%]
Pressure (altimeter): 30.27 inches Hg (1025.0 mb)
Winds: variable direction winds at 2 MPH (2 knots; 1.0 m/s)
Visibility: 6 miles ( 9 km)
Ceiling: at least 12,000 feet AGL
Clouds: sky clear below 12,000 feet AGL
Weather: no significant weather observed at this time

METAR text: EHRD 090555Z AUTO 06003KT 9000 NSC 09/07 Q1025 NOSIG
Conditions at: EHRD (ROTTERDAM AIRPOR, NL) observed 0555 UTC 09 April 2020
Temperature: 9.0°C (48°F)
Dewpoint: 7.0°C (45°F) [RH = 87%]
Pressure (altimeter): 30.27 inches Hg (1025.0 mb)
Winds: from the ENE (60 degrees) at 3 MPH (3 knots; 1.5 m/s)
Visibility: 6 miles ( 9 km)
Ceiling: at least 12,000 feet AGL
Clouds: sky clear below 12,000 feet AGL
Weather: no significant weather observed at this time

Forecast for: EHRD (ROTTERDAM AIRPOR, NL)
Text: TAF EHRD 090439Z 0906/1012 05003KT CAVOK
Forecast period: 0600 UTC 09 April 2020 to 1200 UTC 10 April 2020
Forecast type: FROM: standard forecast or significant change
Winds: from the NE (50 degrees) at 3 MPH (3 knots; 1.5 m/s)
Visibility: 6 or more miles 10+ km)
Ceiling: unknown
Clouds: missing
Weather: NSW  (no significant weather)
Text: BECMG 0906/0908 09006KT
Forecast period: 0600 to 1200 UTC 09 April 2020
Forecast type: BECOMING: Conditions expected to become as follows by 0800 UTC 09 April 2020
Winds: from the E (90 degrees) at 7 MPH (6 knots; 3.1 m/s)
Visibility: 6 or more miles 10+ km)
Ceiling: unknown
Clouds: missing
Weather: NSW  (no significant weather)
Text: BECMG 0912/0915 04010KT
Forecast period: 1200 UTC 09 April 2020 to 1200 UTC 10 April 2020
Forecast type: BECOMING: Conditions expected to become as follows by 1500 UTC 09 April 2020
Winds: from the NE (40 degrees) at 12 MPH (10 knots; 5.1 m/s)
Visibility: 6 or more miles 10+ km)
Ceiling: unknown
Clouds: missing
Weather: NSW  (no significant weather)

 AIRPORT MAP

 RUNWAY INFORMATION
Runway 06 Runway length 7218 ft Runway width 148 ft
Runway elevation 0 ft Runway displaced threshold 656 ft Runway heading 57
Runway 24 Runway length 7218 ft Runway width 148 ft
Runway elevation 0 ft Runway displaced threshold 656 ft Runway heading 237

 AIRPORT FREQUENCIES
Type A/D Name SCHIPHOL Frequency 121.2 MHZ
Type APP Name APP Frequency 127.025 MHZ
Type ATIS Name ATIS Frequency 110.4 MHZ
Type GND Name GND Frequency 122.175 MHZ
Type TWR Name TWR Frequency 118.2 MHZ

 AIRPORT NEAR NAVIGATION AIDS
Type NDB Name Rotterdam Frequency 351 KHZ
Type VOR-DME Name Rotterdam Frequency 110400 KHZ